createdAt,value
2018-08-31T05:48:44.110Z,7.07
2018-08-31T05:51:15.657Z,8.27
2018-08-31T05:53:46.589Z,6.40
2018-08-31T05:56:17.524Z,6.57
2018-08-31T05:58:49.726Z,6.27
2018-08-31T06:01:20.583Z,9.27
2018-08-31T06:03:51.613Z,7.23
2018-08-31T06:06:22.642Z,7.43
2018-08-31T06:08:54.665Z,6.27
2018-08-31T06:11:25.888Z,6.03
2018-08-31T06:13:56.770Z,6.80
2018-08-31T06:16:27.634Z,5.87
2018-08-31T06:18:58.929Z,6.87
2018-08-31T06:21:30.021Z,5.33
2018-08-31T06:24:01.604Z,5.50
2018-08-31T06:26:33.004Z,5.90
2018-08-31T06:29:04.422Z,6.23
2018-08-31T06:31:35.539Z,6.33
2018-08-31T06:34:07.408Z,5.93
2018-08-31T06:36:38.309Z,6.83
2018-08-31T06:39:09.407Z,9.53
2018-08-31T06:41:41.583Z,9.03
2018-08-31T06:44:12.533Z,7.53
2018-08-31T06:46:43.515Z,7.13
2018-08-31T06:49:14.641Z,6.90
2018-08-31T06:51:46.215Z,6.07
2018-08-31T06:54:17.188Z,7.53
2018-08-31T06:56:48.925Z,7.40
2018-08-31T06:59:21.973Z,9.40
2018-08-31T07:01:53.017Z,5.70
2018-08-31T07:04:24.117Z,5.97
2018-08-31T07:06:55.125Z,6.80
2018-08-31T07:09:26.715Z,6.97
2018-08-31T07:11:57.744Z,4.93
2018-08-31T07:14:28.783Z,5.47
2018-08-31T07:16:59.842Z,7.57
2018-08-31T07:19:30.935Z,6.13
2018-08-31T07:22:02.225Z,5.43
2018-08-31T07:24:33.481Z,7.23
2018-08-31T07:27:04.403Z,5.77
2018-08-31T07:29:35.388Z,6.70
2018-08-31T07:32:06.742Z,5.63
2018-08-31T07:34:37.694Z,5.67
2018-08-31T07:37:09.161Z,5.40
2018-08-31T07:39:40.078Z,5.60
2018-08-31T07:42:11.046Z,7.03
2018-08-31T07:44:42.064Z,6.33
2018-08-31T07:47:12.967Z,6.70
2018-08-31T07:49:43.873Z,6.00
2018-08-31T07:52:14.650Z,7.60
2018-08-31T07:54:45.959Z,5.63
2018-08-31T07:57:17.603Z,7.67
2018-08-31T07:59:49.648Z,5.77
2018-08-31T08:02:20.979Z,6.17
2018-08-31T08:04:51.971Z,5.70
2018-08-31T08:07:22.997Z,5.20
2018-08-31T08:09:53.879Z,6.80
2018-08-31T08:12:24.820Z,5.97
2018-08-31T08:14:55.693Z,6.07
2018-08-31T08:17:26.552Z,5.70
2018-08-31T08:19:57.457Z,7.10
2018-08-31T08:22:29.269Z,5.43
2018-08-31T08:25:00.315Z,4.70
2018-08-31T08:27:31.197Z,5.40
2018-08-31T08:30:02.137Z,6.33
2018-08-31T08:32:33.065Z,4.70
2018-08-31T08:35:04.147Z,5.33
2018-08-31T08:37:35.007Z,4.73
2018-08-31T08:40:06.555Z,5.43
2018-08-31T08:42:37.557Z,5.80
2018-08-31T08:45:08.793Z,5.00
2018-08-31T08:47:39.669Z,5.30
2018-08-31T08:50:11.493Z,6.03
2018-08-31T08:52:42.722Z,6.00
2018-08-31T08:55:13.675Z,4.90
2018-08-31T08:57:44.589Z,5.03
2018-08-31T09:00:16.290Z,5.40
2018-08-31T09:02:47.259Z,5.10
2018-08-31T09:05:18.107Z,5.47
2018-08-31T09:07:49.046Z,6.43
2018-08-31T09:10:19.994Z,6.40
2018-08-31T09:12:51.525Z,6.27
2018-08-31T09:15:22.287Z,5.00
2018-08-31T09:17:53.647Z,5.10
2018-08-31T09:20:24.620Z,4.80
2018-08-31T09:22:55.425Z,5.27
2018-08-31T09:25:26.240Z,5.20
2018-08-31T09:27:57.752Z,5.03
2018-08-31T09:30:33.703Z,5.57
2018-08-31T09:33:04.803Z,5.63
2018-08-31T09:35:35.602Z,4.60
2018-08-31T09:38:06.560Z,5.10
2018-08-31T09:40:37.469Z,8.93
2018-08-31T09:43:12.289Z,5.20
2018-08-31T09:45:43.168Z,5.67
2018-08-31T09:48:14.717Z,5.97
2018-08-31T09:50:45.595Z,4.93
2018-08-31T09:53:17.352Z,5.67
2018-08-31T09:55:48.303Z,5.47
2018-08-31T09:58:19.230Z,4.70
2018-08-31T10:00:59.631Z,5.83
2018-08-31T10:03:30.436Z,4.87
2018-08-31T10:06:01.319Z,4.90
2018-08-31T10:08:32.232Z,5.50
2018-08-31T10:11:03.077Z,4.70
2018-08-31T10:13:33.944Z,5.10
2018-08-31T10:16:06.826Z,5.73
2018-08-31T10:18:37.924Z,6.90
2018-08-31T10:21:09.796Z,5.17
2018-08-31T10:23:40.729Z,6.87
2018-08-31T10:26:11.695Z,6.60
2018-08-31T10:28:42.965Z,5.73
2018-08-31T10:31:14.301Z,4.50
2018-08-31T10:33:45.373Z,5.80
2018-08-31T10:36:16.295Z,5.63
2018-08-31T10:38:47.756Z,5.27
2018-08-31T10:41:18.604Z,5.00
2018-08-31T10:43:50.632Z,6.13
2018-08-31T10:46:21.678Z,5.93
2018-08-31T10:48:53.015Z,5.80
2018-08-31T10:51:23.815Z,5.70
2018-08-31T10:53:54.969Z,5.50
2018-08-31T10:56:25.970Z,6.10
2018-08-31T10:58:56.947Z,6.27
2018-08-31T11:01:27.871Z,6.23
2018-08-31T11:04:00.665Z,8.73
2018-08-31T11:06:32.833Z,8.17
2018-08-31T11:09:04.728Z,7.60
2018-08-31T11:11:42.511Z,10.77
2018-08-31T11:14:15.728Z,9.43
2018-08-31T11:16:52.220Z,9.63
2018-08-31T11:19:23.318Z,10.13
2018-08-31T11:21:54.844Z,9.27
2018-08-31T11:24:25.843Z,9.77
2018-08-31T11:26:56.921Z,9.83
2018-08-31T11:29:28.091Z,12.10
2018-08-31T11:32:01.162Z,8.60
2018-08-31T11:34:32.350Z,8.87
2018-08-31T11:37:03.588Z,10.57
2018-08-31T11:39:35.175Z,9.67
2018-08-31T11:42:09.246Z,10.80
2018-08-31T11:44:46.012Z,10.10
2018-08-31T11:47:17.088Z,8.70
2018-08-31T11:49:48.907Z,9.27
2018-08-31T11:52:21.334Z,8.80
2018-08-31T11:54:52.464Z,8.73
2018-08-31T11:57:23.559Z,9.33
2018-08-31T11:59:59.064Z,9.00
2018-08-31T12:02:31.904Z,9.90
2018-08-31T12:05:08.123Z,10.00
2018-08-31T12:07:39.092Z,9.27
2018-08-31T12:10:10.631Z,8.40
2018-08-31T12:12:41.566Z,7.13
2018-08-31T12:15:13.715Z,7.70
2018-08-31T12:17:44.693Z,8.23
2018-08-31T12:20:15.741Z,7.50
2018-08-31T15:51:09.315Z,7.00
2018-08-31T15:53:48.048Z,6.17
2018-08-31T15:56:23.541Z,7.27
2018-08-31T15:59:17.738Z,6.30
2018-08-31T16:01:53.877Z,7.20
2018-08-31T16:04:48.257Z,6.40
2018-08-31T16:07:30.641Z,6.47
2018-08-31T16:10:05.095Z,8.23
2018-08-31T16:12:37.084Z,8.10
2018-08-31T16:15:10.891Z,7.50
2018-08-31T16:17:53.639Z,9.00
2018-08-31T16:20:25.097Z,10.60
2018-08-31T16:22:56.847Z,8.50
2018-08-31T16:25:35.386Z,8.63
2018-08-31T16:28:08.241Z,15.47
2018-08-31T16:30:40.856Z,8.87
2018-08-31T16:33:12.951Z,10.67
2018-08-31T16:35:59.324Z,8.27
2018-08-31T16:38:32.365Z,8.50
2018-08-31T16:41:08.021Z,9.00
2018-08-31T16:43:40.789Z,9.77
2018-08-31T16:46:11.753Z,11.90
2018-08-31T16:48:42.673Z,8.53
2018-08-31T16:51:39.023Z,10.57
2018-08-31T17:08:16.341Z,9.40
2018-08-31T17:10:47.141Z,9.23
2018-08-31T17:13:31.426Z,7.90
2018-08-31T17:16:03.747Z,8.33
2018-08-31T17:18:34.601Z,12.27
2018-08-31T17:21:05.454Z,9.90
2018-08-31T17:23:37.357Z,10.33
2018-08-31T17:26:12.410Z,11.13
2018-08-31T17:28:48.294Z,10.63
2018-08-31T17:31:25.757Z,10.43
2018-08-31T17:36:04.013Z,10.47
2018-08-31T17:38:45.327Z,10.53
2018-08-31T17:41:16.526Z,10.10
2018-08-31T17:43:48.538Z,10.10
2018-08-31T17:46:19.606Z,11.60
